Starrhs Ferry, Idaho
Current Conditions -  °F | °C
As of 5:53 PM on Friday 28 Nov 2014 (Local Time) from KBYI Reporting Station
Clear Clear  
Wind Chill: 54°   Ceiling: Unl
Heat Index: 54°   Visibility: 10mi
Dew Point: 19°   Wind: 9mph
Humidity: 25%   Direction: 250°WSW
Pressure: 29.72"   Gusts: NA
Location:  42.5011°N, 113.814°W
Report Text: KBYI 290053Z AUTO 25008KT 10SM CLR 12/M07 A2972 RMK AO2 SLP044 T01221072
Loading
Personal Weather Stations






























Interactive Weather Map New forecast layout! Learn more

10-Day Weather Forecast

Advertisements
Track Severe Weather on mobile